x

Smith Island, Wa (sisw1) Weather Station

6:00 - Sat 23rd Aug 2014 All times are PDT. -7 hours from GMT.

  • Wind
    7mph, 8mph gusts
  • Ar Temp 50°f
  • Sea Pressure 1020.8mb
  • Smith Island, Wa
  • Smith Island, Wa

More Historic Weather Station data

Upgrade to MSW Pro to gain access to the past 30 days of data for over 8000 Wavebouys and Weather Stations around the globe.

Join Pro

Comparision Forecast

View Surf forecast
   
Sáb 08/23 6:00 7 8 mph 1020.8mb 50f
5:00 10 13 mph 1020.7mb 51f
4:00 11 14 mph 1020.4mb 51f
3:00 15 16 mph 1020.2mb 53f
2:00 7 8 mph 1020.1mb 53f
1:00 6
mph
1019.6mb 53f
12:00 6
mph
1019.6mb 54f
Sex 08/22 11:00 8
mph
1019.5mb 54f
10:00 9 10 mph 1019.4mb 55f
9:00 5 7 mph 1019.3mb 55f
8:00 7 8 mph 1018.7mb 55f
7:00 5
mph
1018.6mb 57f
6:00 5 6 mph 1018.2mb 57f
5:00 6 7 mph 1018.2mb 58f
4:00 7
mph
1018.4mb 63f
3:00 9 11 mph 1018.5mb 61f
2:00 8 9 mph 1018.6mb 58f
1:00 7 9 mph 1018.8mb 58f
12:00 3 5 mph 1019mb 54f
11:00 2 3 mph 1018.9mb 53f
10:00 3
mph
1018.8mb 52f
9:00 7 9 mph 1018.6mb 52f
8:00 7 10 mph 1018.3mb 51f
7:00 7 10 mph 1018.1mb 51f
6:00 9 11 mph 1017.5mb 51f
5:00 10 11 mph 1017.1mb 51f
4:00 7 10 mph 1016.8mb 53f
3:00 6 7 mph 1016.7mb 53f
2:00 14 15 mph 1016.2mb 54f
1:00 17 21 mph 1016.1mb 55f
12:00 22 23 mph 1015.9mb 55f
Qui 08/21 11:00 22 24 mph 1015.9mb 55f
10:00 13 14 mph 1016.2mb 55f
9:00 16 17 mph 1016mb 56f
8:00 7 8 mph 1016mb 56f
7:00 5
mph
1016.1mb 57f
6:00 3 5 mph 1016mb 59f
5:00 5 6 mph 1016mb 60f
4:00 5 6 mph 1016.3mb 58f
3:00 7 8 mph 1016.8mb 57f
2:00 9 10 mph 1017.3mb 58f
1:00 7
mph
1017.5mb 56f
12:00 6 7 mph 1017.6mb 56f
11:00 2
mph
1017.9mb 55f
10:00 2 3 mph 1018mb 55f
9:00  -  1 mph 1017.7mb 55f
8:00 3
mph
1017.6mb 54f
7:00 2 3 mph 1017.3mb 54f
6:00  -  2 mph 1017.1mb 54f
5:00 10 13 mph 1016.8mb 53f
4:00 16 17 mph 1016.6mb 53f
3:00 17 18 mph 1016.6mb 54f
2:00 16 18 mph 1016.5mb 53f
1:00 11 13 mph 1016.4mb 54f
12:00 14 16 mph 1016mb 54f
Qua 08/20 11:00 15 16 mph 1015.7mb 54f
10:00 11 13 mph 1015.7mb 54f
9:00 11 13 mph 1015.3mb 55f
8:00 7 9 mph 1014.9mb 56f
7:00 2
mph
1014.8mb 62f
6:00 2 5 mph 1014.9mb 62f
5:00 11
mph
1014.8mb 65f
4:00 6 8 mph 1015mb 64f
3:00 10 11 mph 1015.2mb 63f
2:00 13 14 mph 1015.4mb 62f
1:00 7 8 mph 1015.4mb 63f
12:00 10 11 mph 1015.3mb 61f
11:00 11 13 mph 1014.9mb 58f
10:00 11
mph
1014.7mb 58f
9:00  -  mph 1014.4mb 58f
8:00 1 2 mph 1014mb 56f
7:00 6 7 mph 1013.6mb 55f
6:00 8 9 mph 1012.7mb 54f
5:00 14 15 mph 1012.2mb 55f
4:00 15 16 mph 1011.7mb 55f
3:00 18 21 mph 1011.4mb 55f
2:00 18 21 mph 1011.2mb 54f
1:00 26 29 mph 1010.7mb 55f
12:00 23 25 mph 1009.9mb 54f
Ter 08/19 11:00 22 24 mph 1009.5mb 54f
10:00 22 24 mph 1009.3mb 55f
9:00 26 28 mph 1008.8mb 56f
8:00 24 29 mph 1008.7mb 56f
7:00 18 21 mph 1008.8mb 57f
6:00 16 23 mph 1009mb 59f
5:00 15 18 mph 1009.3mb 59f
4:00 13 14 mph 1009.9mb 58f
3:00 16 17 mph 1010.3mb 60f